createdAt,value
2023-01-08T00:00:51.657Z,2.25
2023-01-08T00:03:18.213Z,2.55
2023-01-08T00:05:44.503Z,2.15
2023-01-08T00:08:11.284Z,2.25
2023-01-08T00:10:38.100Z,2.40
2023-01-08T00:13:05.552Z,2.20
2023-01-08T00:15:32.757Z,2.40
2023-01-08T00:18:01.169Z,2.17
2023-01-08T00:20:27.916Z,2.50
2023-01-08T00:22:54.367Z,2.42
2023-01-08T00:25:20.868Z,2.33
2023-01-08T00:27:47.275Z,2.35
2023-01-08T00:30:13.613Z,2.35
2023-01-08T00:32:39.909Z,2.08
2023-01-08T00:35:06.388Z,2.53
2023-01-08T00:37:32.850Z,2.53
2023-01-08T00:39:59.146Z,2.22
2023-01-08T00:42:25.455Z,2.38
2023-01-08T00:44:51.777Z,2.53
2023-01-08T00:47:18.107Z,2.20
2023-01-08T00:49:44.426Z,2.20
2023-01-08T00:52:11.997Z,2.33
2023-01-08T00:54:38.346Z,2.20
2023-01-08T00:57:04.596Z,2.10
2023-01-08T00:59:30.909Z,2.25
2023-01-08T01:01:57.358Z,2.30
2023-01-08T01:04:25.168Z,2.47
2023-01-08T01:06:51.483Z,2.37
2023-01-08T01:09:17.713Z,2.17
2023-01-08T01:11:44.044Z,2.40
2023-01-08T01:14:10.343Z,2.83
2023-01-08T01:16:36.651Z,2.40
2023-01-08T01:19:02.909Z,2.50
2023-01-08T01:21:30.485Z,2.40
2023-01-08T01:23:57.676Z,2.20
2023-01-08T01:26:24.395Z,2.45
2023-01-08T01:28:51.758Z,2.67
2023-01-08T01:31:18.608Z,2.10
2023-01-08T01:33:45.284Z,2.63
2023-01-08T01:36:12.391Z,2.53
2023-01-08T01:38:38.802Z,2.60
2023-01-08T01:41:05.148Z,2.78
2023-01-08T01:43:39.539Z,2.80
2023-01-08T01:46:17.655Z,2.83
2023-01-08T01:48:44.217Z,2.60
2023-01-08T01:51:10.500Z,2.08
2023-01-08T01:53:37.577Z,2.50
2023-01-08T01:56:04.853Z,2.40
2023-01-08T01:58:32.161Z,2.60
2023-01-08T02:01:01.025Z,2.47
2023-01-08T02:03:29.588Z,2.50
2023-01-08T02:06:12.352Z,2.80
2023-01-08T02:08:52.543Z,2.40
2023-01-08T02:11:37.382Z,2.55
2023-01-08T02:14:10.949Z,2.40
2023-01-08T02:16:43.383Z,2.33
2023-01-08T02:19:16.395Z,2.63
2023-01-08T02:22:08.919Z,2.28
2023-01-08T02:24:55.909Z,2.67
2023-01-08T02:27:24.136Z,2.40
2023-01-08T02:29:51.283Z,1.88
2023-01-08T02:32:17.542Z,2.75
2023-01-08T02:34:43.857Z,2.58
2023-01-08T02:37:10.349Z,3.08
2023-01-08T02:39:45.683Z,2.35
2023-01-08T02:42:16.428Z,2.00
2023-01-08T02:44:46.001Z,2.78
2023-01-08T02:47:18.381Z,2.30
2023-01-08T02:49:47.119Z,2.40
2023-01-08T02:54:40.130Z,2.50
2023-01-08T02:57:09.172Z,2.45
2023-01-08T02:59:37.071Z,1.85
2023-01-08T03:02:03.676Z,1.65
2023-01-08T03:04:31.664Z,1.40
2023-01-08T03:06:58.105Z,1.23
2023-01-08T03:09:24.326Z,1.75
2023-01-08T03:11:55.710Z,1.00
2023-01-08T03:14:42.270Z,0.90
2023-01-08T03:17:11.755Z,1.00
2023-01-08T03:19:40.185Z,1.02
2023-01-08T03:22:09.003Z,0.93
2023-01-08T03:24:37.717Z,0.88
2023-01-08T03:29:31.610Z,1.08
2023-01-08T03:32:00.017Z,0.57
2023-01-08T03:34:27.491Z,0.88
2023-01-08T03:36:55.620Z,1.42
2023-01-08T03:39:33.921Z,0.88
2023-01-08T03:42:02.425Z,0.70
2023-01-08T03:44:28.713Z,0.80
2023-01-08T03:46:55.422Z,0.88
2023-01-08T03:49:22.711Z,1.10
2023-01-08T03:51:49.026Z,2.28
2023-01-08T03:54:16.971Z,0.95
2023-01-08T03:56:43.305Z,0.80
2023-01-08T03:59:11.001Z,1.40
2023-01-08T04:01:37.486Z,0.88
2023-01-08T04:04:03.967Z,0.82
2023-01-08T04:06:30.180Z,0.77
2023-01-08T04:08:56.609Z,0.65
2023-01-08T04:11:22.842Z,1.13
2023-01-08T04:13:49.149Z,0.77
2023-01-08T04:16:15.495Z,0.90
2023-01-08T04:18:41.818Z,1.20
2023-01-08T04:21:08.099Z,0.95
2023-01-08T04:23:34.428Z,0.90
2023-01-08T04:26:03.627Z,0.85
2023-01-08T04:28:30.420Z,1.15
2023-01-08T04:30:56.826Z,1.75
2023-01-08T04:33:23.174Z,0.60
2023-01-08T04:35:49.446Z,1.20
2023-01-08T04:38:15.867Z,1.20
2023-01-08T04:40:42.291Z,1.15
2023-01-08T04:43:08.576Z,1.15
2023-01-08T04:45:34.974Z,1.10
2023-01-08T04:48:01.313Z,0.95
2023-01-08T04:50:27.525Z,0.90
2023-01-08T04:52:53.947Z,1.20
2023-01-08T04:55:20.401Z,0.80
2023-01-08T04:57:47.558Z,1.00
2023-01-08T05:00:14.099Z,1.00
2023-01-08T05:02:40.558Z,0.73
2023-01-08T05:05:07.139Z,1.23
2023-01-08T05:07:33.508Z,1.20
2023-01-08T05:09:59.821Z,1.35
2023-01-08T05:12:26.091Z,1.00
2023-01-08T05:14:52.411Z,1.05
2023-01-08T05:17:18.710Z,0.88
2023-01-08T05:19:45.016Z,1.13
2023-01-08T05:22:11.448Z,1.00
2023-01-08T05:24:37.730Z,1.20
2023-01-08T05:27:04.077Z,1.08
2023-01-08T05:29:30.382Z,0.77
2023-01-08T05:31:56.666Z,0.95
2023-01-08T05:34:22.944Z,1.17
2023-01-08T05:36:49.233Z,1.38
2023-01-08T05:39:15.510Z,1.08
2023-01-08T05:41:41.748Z,1.10
2023-01-08T05:44:09.639Z,1.30
2023-01-08T05:46:35.982Z,1.00
2023-01-08T05:49:02.404Z,1.02
2023-01-08T05:51:28.692Z,1.02
2023-01-08T05:53:54.950Z,1.13
2023-01-08T05:56:21.311Z,1.17
2023-01-08T05:58:47.584Z,1.10
2023-01-08T06:01:17.658Z,1.38
2023-01-08T06:03:43.975Z,1.27
2023-01-08T06:06:11.074Z,1.00
2023-01-08T06:08:37.494Z,1.10
2023-01-08T06:11:05.690Z,1.42
2023-01-08T06:13:32.619Z,1.00
2023-01-08T06:16:00.258Z,1.00
2023-01-08T06:18:26.859Z,1.08
2023-01-08T06:20:53.271Z,0.82
2023-01-08T06:23:19.526Z,1.00
2023-01-08T06:25:51.167Z,0.75
2023-01-08T06:28:17.476Z,1.10
2023-01-08T06:30:43.725Z,0.80
2023-01-08T06:33:10.008Z,0.90
2023-01-08T06:35:36.330Z,1.10
2023-01-08T06:38:02.600Z,0.77
2023-01-08T06:40:28.964Z,0.80
2023-01-08T06:42:55.368Z,1.23
2023-01-08T06:45:21.584Z,1.00
2023-01-08T06:47:47.831Z,1.00
2023-01-08T06:50:14.135Z,1.08
2023-01-08T06:52:40.392Z,1.00
2023-01-08T06:55:06.877Z,1.15
2023-01-08T06:57:33.167Z,1.35
2023-01-08T06:59:59.380Z,1.15
2023-01-08T07:02:25.966Z,1.23
2023-01-08T07:04:52.398Z,1.00
2023-01-08T07:07:18.668Z,0.95
2023-01-08T07:09:45.011Z,0.90
2023-01-08T07:12:12.442Z,1.17
2023-01-08T07:14:38.714Z,1.38
2023-01-08T07:17:04.998Z,1.30
2023-01-08T07:19:31.550Z,1.40
2023-01-08T07:21:57.804Z,1.20
2023-01-08T07:24:24.227Z,0.98
2023-01-08T07:26:50.534Z,1.52
2023-01-08T07:29:16.802Z,1.00
2023-01-08T07:31:43.153Z,0.90
2023-01-08T07:34:09.511Z,1.00
2023-01-08T07:36:35.771Z,1.10
2023-01-08T07:39:02.173Z,1.00
2023-01-08T07:41:28.665Z,1.45
2023-01-08T07:43:54.908Z,1.40
2023-01-08T07:46:22.910Z,0.98
2023-01-08T07:48:49.509Z,0.85
2023-01-08T07:51:15.792Z,1.15
2023-01-08T07:53:42.999Z,1.20
2023-01-08T07:56:10.785Z,1.30
2023-01-08T07:58:37.533Z,1.87
2023-01-08T08:01:06.496Z,1.35
2023-01-08T08:03:32.877Z,1.15
2023-01-08T08:06:00.004Z,0.93
2023-01-08T08:08:26.321Z,0.80
2023-01-08T08:10:52.699Z,1.17
2023-01-08T08:13:18.891Z,1.02
2023-01-08T08:15:45.176Z,1.70
2023-01-08T08:18:12.123Z,1.58
2023-01-08T08:20:38.847Z,1.20
2023-01-08T08:23:06.774Z,1.20
2023-01-08T08:25:33.192Z,1.23
2023-01-08T08:28:00.249Z,1.52
2023-01-08T08:30:27.564Z,1.02
2023-01-08T08:32:54.075Z,1.05
2023-01-08T08:35:20.974Z,1.20
2023-01-08T08:37:47.284Z,1.10
2023-01-08T08:40:13.642Z,1.70
2023-01-08T08:42:39.943Z,1.50
2023-01-08T08:45:06.676Z,1.33
2023-01-08T08:47:32.962Z,1.45
2023-01-08T08:49:59.245Z,1.27
2023-01-08T08:52:25.513Z,1.35
2023-01-08T08:54:52.130Z,1.50
2023-01-08T08:57:18.493Z,1.10
2023-01-08T08:59:44.872Z,1.00
2023-01-08T09:02:12.102Z,1.35
2023-01-08T09:04:38.593Z,1.38
2023-01-08T09:07:04.922Z,1.27
2023-01-08T09:09:31.163Z,1.30
2023-01-08T09:11:57.754Z,1.20
2023-01-08T09:14:24.017Z,1.52
2023-01-08T09:16:50.535Z,1.42
2023-01-08T09:19:16.852Z,1.10
2023-01-08T09:21:43.169Z,1.08
2023-01-08T09:24:09.526Z,1.02
2023-01-08T09:26:35.918Z,1.25
2023-01-08T09:29:02.481Z,1.05
2023-01-08T09:31:29.012Z,2.28
2023-01-08T09:33:55.362Z,1.30
2023-01-08T09:36:21.587Z,1.50
2023-01-08T09:38:47.947Z,2.00
2023-01-08T09:41:22.641Z,1.40
2023-01-08T09:43:50.322Z,1.20
2023-01-08T09:46:18.611Z,1.98
2023-01-08T09:48:45.122Z,1.08
2023-01-08T09:51:15.805Z,1.48
2023-01-08T09:53:43.153Z,1.10
2023-01-08T09:56:14.141Z,1.67
2023-01-08T09:58:44.801Z,1.50
2023-01-08T10:01:17.038Z,1.00
2023-01-08T10:03:51.434Z,1.63
2023-01-08T10:06:17.914Z,1.55
2023-01-08T10:11:16.481Z,1.45
2023-01-08T10:13:45.352Z,1.60
2023-01-08T10:16:16.611Z,1.58
2023-01-08T10:18:43.626Z,2.00
2023-01-08T10:21:14.151Z,1.45
2023-01-08T10:23:49.177Z,1.48
2023-01-08T10:26:24.392Z,1.58
2023-01-08T10:28:51.122Z,1.88
2023-01-08T10:31:17.739Z,1.50
2023-01-08T10:33:45.950Z,1.52
2023-01-08T10:36:16.954Z,1.63
2023-01-08T10:38:49.678Z,2.85
2023-01-08T10:41:16.110Z,1.65
2023-01-08T10:43:49.155Z,1.55
2023-01-08T10:46:25.841Z,1.65
2023-01-08T10:48:54.194Z,1.92
2023-01-08T10:51:23.583Z,1.98
2023-01-08T10:53:50.464Z,1.65
2023-01-08T10:56:21.931Z,1.60
2023-01-08T10:58:48.824Z,1.23
2023-01-08T11:01:18.004Z,1.48
2023-01-08T11:03:48.929Z,1.73
2023-01-08T11:06:27.501Z,1.30
2023-01-08T11:11:20.522Z,1.60
2023-01-08T11:14:00.323Z,1.50
2023-01-08T11:16:34.031Z,1.55
2023-01-08T11:19:00.740Z,1.80
2023-01-08T11:21:28.532Z,1.50
2023-01-08T11:24:13.525Z,1.70
2023-01-08T11:26:40.830Z,1.85
2023-01-08T11:29:38.938Z,1.40
2023-01-08T11:32:20.245Z,1.92
2023-01-08T11:35:00.971Z,1.70
2023-01-08T11:37:38.714Z,1.77
2023-01-08T11:40:23.865Z,1.57
2023-01-08T11:42:53.196Z,1.52
2023-01-08T11:45:30.068Z,1.40
2023-01-08T11:47:56.316Z,1.30
2023-01-08T11:50:29.765Z,1.58
2023-01-08T11:53:14.680Z,1.60
2023-01-08T11:55:59.699Z,1.17
2023-01-08T11:58:42.095Z,1.00
2023-01-08T12:01:12.816Z,0.95
2023-01-08T12:03:49.499Z,1.00
2023-01-08T12:06:31.844Z,1.33
2023-01-08T12:09:09.657Z,0.77
2023-01-08T12:11:43.889Z,0.60
2023-01-08T12:14:25.340Z,0.90
2023-01-08T12:17:02.540Z,0.57
2023-01-08T12:19:55.188Z,0.75
2023-01-08T12:22:32.293Z,0.55
2023-01-08T12:25:20.778Z,0.70
2023-01-08T12:30:42.147Z,0.73
2023-01-08T12:33:21.080Z,0.70
2023-01-08T12:35:49.951Z,0.65
2023-01-08T12:38:22.501Z,0.70
2023-01-08T12:40:50.918Z,0.77
2023-01-08T12:43:24.225Z,0.73
2023-01-08T12:45:51.664Z,0.80
2023-01-08T12:48:20.217Z,0.63
2023-01-08T12:50:57.170Z,0.50
2023-01-08T12:53:35.174Z,0.70
2023-01-08T12:56:16.517Z,0.60
2023-01-08T12:58:45.511Z,0.85
2023-01-08T13:01:17.500Z,0.70
2023-01-08T13:03:44.600Z,0.60
2023-01-08T13:06:15.620Z,0.52
2023-01-08T13:08:44.773Z,0.50
2023-01-08T13:11:11.177Z,0.85
2023-01-08T13:13:41.619Z,0.95
2023-01-08T13:16:28.355Z,0.85
2023-01-08T13:19:02.060Z,1.25
2023-01-08T13:21:31.108Z,1.42
2023-01-08T13:24:01.738Z,0.95
2023-01-08T13:26:29.842Z,0.75
2023-01-08T13:29:05.692Z,0.98
2023-01-08T13:31:38.880Z,0.90
2023-01-08T13:34:18.211Z,1.33
2023-01-08T13:36:54.562Z,1.10
2023-01-08T13:39:24.959Z,0.93
2023-01-08T13:42:02.323Z,1.02
2023-01-08T13:44:29.899Z,1.15
2023-01-08T13:47:01.312Z,1.00
2023-01-08T13:49:44.871Z,0.95
2023-01-08T13:52:34.268Z,1.00
2023-01-08T13:55:03.198Z,1.13
2023-01-08T13:57:34.011Z,0.90
2023-01-08T14:00:00.707Z,0.90
2023-01-08T14:02:31.959Z,1.13
2023-01-08T14:04:59.451Z,1.20
2023-01-08T14:07:26.412Z,0.73
2023-01-08T14:09:52.781Z,1.17
2023-01-08T14:12:22.039Z,1.27
2023-01-08T14:14:52.949Z,1.42
2023-01-08T14:17:21.127Z,1.23
2023-01-08T14:19:47.763Z,1.05
2023-01-08T14:22:16.934Z,1.20
2023-01-08T14:24:44.235Z,1.58
2023-01-08T14:27:19.926Z,1.15
2023-01-08T14:29:46.196Z,1.08
2023-01-08T14:32:15.846Z,0.90
2023-01-08T14:34:42.558Z,1.00
2023-01-08T14:37:12.508Z,1.30
2023-01-08T14:39:38.986Z,1.40
2023-01-08T14:42:26.088Z,0.82
2023-01-08T14:44:56.545Z,0.95
2023-01-08T14:47:23.876Z,1.10
2023-01-08T14:49:52.997Z,1.58
2023-01-08T14:52:21.083Z,0.88
2023-01-08T14:54:49.216Z,1.27
2023-01-08T14:57:17.379Z,0.90
2023-01-08T14:59:49.545Z,1.17
2023-01-08T15:02:23.651Z,1.52
2023-01-08T15:05:00.129Z,1.08
2023-01-08T15:07:29.642Z,1.15
2023-01-08T15:10:01.050Z,1.13
2023-01-08T15:12:28.951Z,1.63
2023-01-08T15:14:55.381Z,0.82
2023-01-08T15:17:23.440Z,1.20
2023-01-08T15:19:57.354Z,1.00
2023-01-08T15:22:27.481Z,1.80
2023-01-08T15:25:01.428Z,1.20
2023-01-08T15:27:28.330Z,1.10
2023-01-08T15:30:00.089Z,1.00
2023-01-08T15:32:37.066Z,1.20
2023-01-08T15:35:13.626Z,1.25
2023-01-08T15:37:41.059Z,2.30
2023-01-08T15:40:09.020Z,1.00
2023-01-08T15:42:53.790Z,1.10
2023-01-08T15:45:21.339Z,0.85
2023-01-08T15:47:47.635Z,1.30
2023-01-08T15:50:14.162Z,1.20
2023-01-08T15:52:41.562Z,1.40
2023-01-08T15:55:10.128Z,1.73
2023-01-08T15:57:36.483Z,1.33
2023-01-08T16:00:02.955Z,1.30
2023-01-08T16:02:29.288Z,1.40
2023-01-08T16:04:56.188Z,1.50
2023-01-08T16:07:22.621Z,1.58
2023-01-08T16:09:48.894Z,1.50
2023-01-08T16:12:15.288Z,1.80
2023-01-08T16:14:41.519Z,1.50
2023-01-08T16:17:09.306Z,1.20
2023-01-08T16:19:35.731Z,1.37
2023-01-08T16:22:02.265Z,1.50
2023-01-08T16:24:29.823Z,1.13
2023-01-08T16:26:56.067Z,1.27
2023-01-08T16:29:22.295Z,1.40
2023-01-08T16:31:48.679Z,1.45
2023-01-08T16:34:17.255Z,1.30
2023-01-08T16:36:44.076Z,1.50
2023-01-08T16:39:10.331Z,1.80
2023-01-08T16:41:36.972Z,1.33
2023-01-08T16:44:03.390Z,1.58
2023-01-08T16:46:29.795Z,1.20
2023-01-08T16:48:56.096Z,1.20
2023-01-08T16:51:22.591Z,1.30
2023-01-08T16:53:48.916Z,1.00
2023-01-08T16:56:15.207Z,1.70
2023-01-08T16:58:41.464Z,1.30
2023-01-08T17:01:09.699Z,1.30
2023-01-08T17:03:36.349Z,1.70
2023-01-08T17:06:09.530Z,1.50
2023-01-08T17:08:40.244Z,1.20
2023-01-08T17:11:10.341Z,1.25
2023-01-08T17:13:36.588Z,1.17
2023-01-08T17:16:03.727Z,0.85
2023-01-08T17:18:30.026Z,1.20
2023-01-08T17:20:56.412Z,1.08
2023-01-08T17:23:27.104Z,1.20
2023-01-08T17:25:53.999Z,1.15
2023-01-08T17:28:20.277Z,1.10
2023-01-08T17:30:46.683Z,1.52
2023-01-08T17:33:14.727Z,1.00
2023-01-08T17:35:41.099Z,0.90
2023-01-08T17:38:07.409Z,1.20
2023-01-08T17:40:34.357Z,1.77
2023-01-08T17:43:00.614Z,1.17
2023-01-08T17:45:27.029Z,1.40
2023-01-08T17:47:53.319Z,1.25
2023-01-08T17:50:19.627Z,1.38
2023-01-08T17:52:46.179Z,1.25
2023-01-08T17:55:12.479Z,1.13
2023-01-08T17:57:38.987Z,1.13
2023-01-08T18:00:05.628Z,0.90
2023-01-08T18:02:31.948Z,1.40
2023-01-08T18:04:58.488Z,1.30
2023-01-08T18:07:24.910Z,1.45
2023-01-08T18:09:54.304Z,1.33
2023-01-08T18:12:20.629Z,1.33
2023-01-08T18:14:47.094Z,1.50
2023-01-08T18:17:13.376Z,1.73
2023-01-08T18:19:39.733Z,1.17
2023-01-08T18:22:06.021Z,1.90
2023-01-08T18:24:32.932Z,2.10
2023-01-08T18:26:59.219Z,2.05
2023-01-08T18:29:25.581Z,1.50
2023-01-08T18:31:52.034Z,1.55
2023-01-08T18:34:18.487Z,1.73
2023-01-08T18:36:44.805Z,1.80
2023-01-08T18:39:11.771Z,1.67
2023-01-08T18:41:57.037Z,2.03
2023-01-08T18:44:23.323Z,2.38
2023-01-08T18:46:49.558Z,2.20
2023-01-08T18:49:15.909Z,2.00
2023-01-08T18:51:42.581Z,2.30
2023-01-08T18:54:11.019Z,1.80
2023-01-08T18:56:37.572Z,1.80
2023-01-08T18:59:04.707Z,2.25
2023-01-08T19:01:31.371Z,1.65
2023-01-08T19:03:57.778Z,1.40
2023-01-08T19:06:24.229Z,1.90
2023-01-08T19:08:50.756Z,1.70
2023-01-08T19:11:17.344Z,1.92
2023-01-08T19:13:43.793Z,1.70
2023-01-08T19:16:11.912Z,2.50
2023-01-08T19:18:38.440Z,1.70
2023-01-08T19:21:08.629Z,1.45
2023-01-08T19:23:35.378Z,2.28
2023-01-08T19:26:05.947Z,1.75
2023-01-08T19:28:32.383Z,2.00
2023-01-08T19:30:59.883Z,1.70
2023-01-08T19:33:26.325Z,1.52
2023-01-08T19:35:52.629Z,1.60
2023-01-08T19:38:18.969Z,1.60
2023-01-08T19:40:45.502Z,2.15
2023-01-08T19:43:31.186Z,1.80
2023-01-08T19:46:03.579Z,2.13
2023-01-08T19:48:29.952Z,2.08
2023-01-08T19:50:56.156Z,2.20
2023-01-08T19:53:22.438Z,2.20
2023-01-08T19:55:48.718Z,2.00
2023-01-08T19:58:16.721Z,1.80
2023-01-08T20:00:43.201Z,2.03
2023-01-08T20:03:10.242Z,1.73
2023-01-08T20:05:40.519Z,1.48
2023-01-08T20:08:06.891Z,1.65
2023-01-08T20:10:33.212Z,1.60
2023-01-08T20:12:59.491Z,1.60
2023-01-08T20:15:25.809Z,1.23
2023-01-08T20:17:52.056Z,1.70
2023-01-08T20:20:18.405Z,1.30
2023-01-08T20:22:44.837Z,1.40
2023-01-08T20:25:11.164Z,1.35
2023-01-08T20:27:37.440Z,1.73
2023-01-08T20:30:04.150Z,1.40
2023-01-08T20:32:30.412Z,1.45
2023-01-08T20:34:56.724Z,1.67
2023-01-08T20:37:23.257Z,1.50
2023-01-08T20:39:50.211Z,1.58
2023-01-08T20:42:21.986Z,1.45
2023-01-08T20:44:48.425Z,1.27
2023-01-08T20:47:15.021Z,1.50
2023-01-08T20:49:41.402Z,1.50
2023-01-08T20:52:07.921Z,1.33
2023-01-08T20:54:34.187Z,1.50
2023-01-08T20:57:00.867Z,1.60
2023-01-08T20:59:27.467Z,1.23
2023-01-08T21:01:53.773Z,2.00
2023-01-08T21:04:21.201Z,1.30
2023-01-08T21:06:47.678Z,1.42
2023-01-08T21:09:16.116Z,1.70
2023-01-08T21:11:42.394Z,1.58
2023-01-08T21:14:08.703Z,1.35
2023-01-08T21:16:36.485Z,2.40
2023-01-08T21:19:03.163Z,1.50
2023-01-08T21:21:32.805Z,1.60
2023-01-08T21:24:00.396Z,1.90
2023-01-08T21:26:26.808Z,1.58
2023-01-08T21:28:53.239Z,1.40
2023-01-08T21:31:20.972Z,1.80
2023-01-08T21:33:48.694Z,1.57
2023-01-08T21:36:19.233Z,1.53
2023-01-08T21:38:45.640Z,2.10
2023-01-08T21:41:36.640Z,1.42
2023-01-08T21:44:22.818Z,1.20
2023-01-08T21:46:49.243Z,1.40
2023-01-08T21:49:15.662Z,1.20
2023-01-08T21:52:00.629Z,1.17
2023-01-08T21:54:26.912Z,1.33
2023-01-08T21:56:53.226Z,1.20
2023-01-08T21:59:19.566Z,1.70
2023-01-08T22:01:45.936Z,1.75
2023-01-08T22:04:12.412Z,1.20
2023-01-08T22:06:38.727Z,1.60
2023-01-08T22:09:04.969Z,1.17
2023-01-08T22:11:31.243Z,1.00
2023-01-08T22:13:57.732Z,1.15
2023-01-08T22:16:24.072Z,1.33
2023-01-08T22:18:50.382Z,1.27
2023-01-08T22:21:16.783Z,1.38
2023-01-08T22:23:43.103Z,2.03
2023-01-08T22:26:11.973Z,1.40
2023-01-08T22:28:39.408Z,1.88
2023-01-08T22:31:06.889Z,1.17
2023-01-08T22:33:33.152Z,1.00
2023-01-08T22:36:01.469Z,1.10
2023-01-08T22:38:27.719Z,1.15
2023-01-08T22:40:53.962Z,1.45
2023-01-08T22:43:20.474Z,1.30
2023-01-08T22:45:53.389Z,1.42
2023-01-08T22:48:19.979Z,1.10
2023-01-08T22:50:46.327Z,0.85
2023-01-08T22:53:12.609Z,1.00
2023-01-08T22:55:42.229Z,1.20
2023-01-08T22:58:08.792Z,1.23
2023-01-08T23:00:35.390Z,1.33
2023-01-08T23:03:01.737Z,1.15
2023-01-08T23:05:28.059Z,1.15
2023-01-08T23:07:54.262Z,1.20
2023-01-08T23:10:20.558Z,1.35
2023-01-08T23:12:46.836Z,1.50
2023-01-08T23:15:13.089Z,1.65
2023-01-08T23:17:51.551Z,1.50
2023-01-08T23:20:19.653Z,1.30
2023-01-08T23:22:46.696Z,1.05
2023-01-08T23:25:13.035Z,1.30
2023-01-08T23:27:39.420Z,1.30
2023-01-08T23:30:06.102Z,1.23
2023-01-08T23:32:32.563Z,1.48
2023-01-08T23:34:58.819Z,1.40
2023-01-08T23:37:25.104Z,1.17
2023-01-08T23:39:51.400Z,1.35
2023-01-08T23:42:17.667Z,1.17
2023-01-08T23:44:43.938Z,1.30
2023-01-08T23:47:10.248Z,1.92
2023-01-08T23:49:36.584Z,1.08
2023-01-08T23:52:03.065Z,1.00
2023-01-08T23:54:29.435Z,1.17
2023-01-08T23:56:55.857Z,1.00
2023-01-08T23:59:22.139Z,1.20
